sensor_id;sensor_type;location;lat;lon;timestamp;pressure;altitude;pressure_sealevel;temperature;humidity
12799;BME280;19250;42.646;26.980;2023-07-31T00:01:41;98365.31;;;22.82;100.00
12799;BME280;19250;42.646;26.980;2023-07-31T00:04:08;98368.50;;;22.96;100.00
12799;BME280;19250;42.646;26.980;2023-07-31T00:06:35;98376.31;;;23.14;100.00
12799;BME280;19250;42.646;26.980;2023-07-31T00:09:02;98372.31;;;23.43;100.00
12799;BME280;19250;42.646;26.980;2023-07-31T00:11:29;98385.47;;;23.51;100.00
12799;BME280;19250;42.646;26.980;2023-07-31T00:13:56;98384.84;;;23.44;100.00
12799;BME280;19250;42.646;26.980;2023-07-31T00:16:22;98380.75;;;23.42;100.00
12799;BME280;19250;42.646;26.980;2023-07-31T00:18:51;98366.25;;;23.36;100.00
12799;BME280;19250;42.646;26.980;2023-07-31T00:21:18;98370.50;;;23.27;100.00
12799;BME280;19250;42.646;26.980;2023-07-31T00:23:44;98357.13;;;22.77;100.00
12799;BME280;19250;42.646;26.980;2023-07-31T00:26:11;98358.63;;;22.68;100.00
12799;BME280;19250;42.646;26.980;2023-07-31T00:28:38;98358.72;;;23.00;100.00
12799;BME280;19250;42.646;26.980;2023-07-31T00:31:05;98371.44;;;23.16;100.00
12799;BME280;19250;42.646;26.980;2023-07-31T00:33:34;98363.97;;;23.28;97.82
12799;BME280;19250;42.646;26.980;2023-07-31T00:36:02;98371.22;;;22.57;100.00
12799;BME280;19250;42.646;26.980;2023-07-31T00:38:29;98374.72;;;22.36;100.00
12799;BME280;19250;42.646;26.980;2023-07-31T00:40:56;98376.94;;;22.39;100.00
12799;BME280;19250;42.646;26.980;2023-07-31T00:43:24;98391.88;;;22.58;100.00
12799;BME280;19250;42.646;26.980;2023-07-31T00:45:51;98411.03;;;22.30;97.59
12799;BME280;19250;42.646;26.980;2023-07-31T00:48:18;98422.56;;;21.76;96.04
12799;BME280;19250;42.646;26.980;2023-07-31T00:50:45;98426.66;;;21.33;95.78
12799;BME280;19250;42.646;26.980;2023-07-31T00:53:13;98420.41;;;21.33;95.54
12799;BME280;19250;42.646;26.980;2023-07-31T00:55:40;98414.22;;;21.21;95.54
12799;BME280;19250;42.646;26.980;2023-07-31T00:58:07;98402.94;;;21.40;94.78
12799;BME280;19250;42.646;26.980;2023-07-31T01:00:34;98393.22;;;21.73;91.52
12799;BME280;19250;42.646;26.980;2023-07-31T01:03:01;98381.91;;;22.09;88.17
12799;BME280;19250;42.646;26.980;2023-07-31T01:05:30;98375.97;;;22.12;87.01
12799;BME280;19250;42.646;26.980;2023-07-31T01:08:01;98369.66;;;22.23;85.59
12799;BME280;19250;42.646;26.980;2023-07-31T01:10:33;98358.94;;;22.16;85.86
12799;BME280;19250;42.646;26.980;2023-07-31T01:13:03;98367.56;;;22.30;84.99
12799;BME280;19250;42.646;26.980;2023-07-31T01:15:30;98363.88;;;22.19;84.51
12799;BME280;19250;42.646;26.980;2023-07-31T01:17:57;98365.28;;;22.05;85.71
12799;BME280;19250;42.646;26.980;2023-07-31T01:20:24;98359.38;;;21.92;86.06
12799;BME280;19250;42.646;26.980;2023-07-31T01:23:04;98343.44;;;21.50;91.00
12799;BME280;19250;42.646;26.980;2023-07-31T01:28:19;98334.97;;;20.90;96.17
12799;BME280;19250;42.646;26.980;2023-07-31T01:30:47;98335.91;;;21.24;95.18
12799;BME280;19250;42.646;26.980;2023-07-31T01:33:15;98343.28;;;21.12;95.62
12799;BME280;19250;42.646;26.980;2023-07-31T01:35:43;98350.22;;;21.64;92.68
12799;BME280;19250;42.646;26.980;2023-07-31T01:38:10;98346.38;;;21.94;87.98
12799;BME280;19250;42.646;26.980;2023-07-31T01:40:37;98349.72;;;21.84;88.52
12799;BME280;19250;42.646;26.980;2023-07-31T01:43:04;98342.59;;;21.50;91.02
12799;BME280;19250;42.646;26.980;2023-07-31T01:45:32;98346.97;;;21.34;91.98
12799;BME280;19250;42.646;26.980;2023-07-31T01:47:59;98338.13;;;21.27;93.82
12799;BME280;19250;42.646;26.980;2023-07-31T01:50:26;98339.44;;;21.69;91.61
12799;BME280;19250;42.646;26.980;2023-07-31T01:52:53;98340.44;;;21.97;87.72
12799;BME280;19250;42.646;26.980;2023-07-31T01:55:20;98358.03;;;22.11;86.34
12799;BME280;19250;42.646;26.980;2023-07-31T01:57:47;98349.47;;;22.19;84.51
12799;BME280;19250;42.646;26.980;2023-07-31T02:00:13;98340.75;;;22.17;84.08
12799;BME280;19250;42.646;26.980;2023-07-31T02:02:42;98346.75;;;22.19;83.72
12799;BME280;19250;42.646;26.980;2023-07-31T02:05:09;98352.66;;;22.33;82.20
12799;BME280;19250;42.646;26.980;2023-07-31T02:07:35;98353.91;;;22.25;80.56
12799;BME280;19250;42.646;26.980;2023-07-31T02:10:02;98352.31;;;21.62;79.06
12799;BME280;19250;42.646;26.980;2023-07-31T02:12:29;98344.94;;;21.58;79.86
12799;BME280;19250;42.646;26.980;2023-07-31T02:14:57;98349.72;;;21.67;79.04
12799;BME280;19250;42.646;26.980;2023-07-31T02:17:24;98345.25;;;21.05;84.06
12799;BME280;19250;42.646;26.980;2023-07-31T02:19:52;98343.22;;;21.24;84.61
12799;BME280;19250;42.646;26.980;2023-07-31T02:22:19;98346.63;;;21.47;81.19
12799;BME280;19250;42.646;26.980;2023-07-31T02:24:46;98352.56;;;21.78;78.70
12799;BME280;19250;42.646;26.980;2023-07-31T02:27:13;98357.50;;;21.92;77.61
12799;BME280;19250;42.646;26.980;2023-07-31T02:29:40;98355.13;;;21.84;78.96
12799;BME280;19250;42.646;26.980;2023-07-31T02:32:07;98353.09;;;22.08;77.84
12799;BME280;19250;42.646;26.980;2023-07-31T02:34:34;98354.59;;;22.15;76.87
12799;BME280;19250;42.646;26.980;2023-07-31T02:37:02;98359.69;;;22.12;76.09
12799;BME280;19250;42.646;26.980;2023-07-31T02:39:29;98353.09;;;22.08;76.62
12799;BME280;19250;42.646;26.980;2023-07-31T02:41:56;98354.31;;;22.17;75.88
12799;BME280;19250;42.646;26.980;2023-07-31T02:44:23;98348.84;;;21.95;77.21
12799;BME280;19250;42.646;26.980;2023-07-31T02:46:50;98344.03;;;21.86;76.46
12799;BME280;19250;42.646;26.980;2023-07-31T02:49:16;98345.22;;;21.90;76.30
12799;BME280;19250;42.646;26.980;2023-07-31T02:51:43;98342.59;;;21.95;75.55
12799;BME280;19250;42.646;26.980;2023-07-31T02:54:11;98339.78;;;21.90;74.16
12799;BME280;19250;42.646;26.980;2023-07-31T02:56:38;98349.00;;;21.89;75.15
12799;BME280;19250;42.646;26.980;2023-07-31T02:59:05;98342.22;;;22.08;74.12
12799;BME280;19250;42.646;26.980;2023-07-31T03:01:32;98339.38;;;21.98;74.21
12799;BME280;19250;42.646;26.980;2023-07-31T03:03:59;98339.78;;;22.06;72.54
12799;BME280;19250;42.646;26.980;2023-07-31T03:06:26;98341.44;;;21.91;72.98
12799;BME280;19250;42.646;26.980;2023-07-31T03:08:53;98338.16;;;21.89;73.72
12799;BME280;19250;42.646;26.980;2023-07-31T03:11:22;98342.31;;;21.96;73.35
12799;BME280;19250;42.646;26.980;2023-07-31T03:13:49;98338.50;;;21.92;73.05
12799;BME280;19250;42.646;26.980;2023-07-31T03:16:16;98338.63;;;21.86;72.46
12799;BME280;19250;42.646;26.980;2023-07-31T03:18:43;98336.41;;;21.99;72.78
12799;BME280;19250;42.646;26.980;2023-07-31T03:21:09;98334.00;;;22.19;71.33
12799;BME280;19250;42.646;26.980;2023-07-31T03:23:36;98336.41;;;21.99;71.27
12799;BME280;19250;42.646;26.980;2023-07-31T03:26:05;98341.84;;;22.16;70.55
12799;BME280;19250;42.646;26.980;2023-07-31T03:28:33;98331.34;;;21.41;72.79
12799;BME280;19250;42.646;26.980;2023-07-31T03:31:00;98336.53;;;21.59;74.16
12799;BME280;19250;42.646;26.980;2023-07-31T03:33:27;98337.53;;;21.87;71.54
12799;BME280;19250;42.646;26.980;2023-07-31T03:35:54;98341.66;;;22.06;71.10
12799;BME280;19250;42.646;26.980;2023-07-31T03:38:21;98336.28;;;22.44;69.94
12799;BME280;19250;42.646;26.980;2023-07-31T03:40:48;98336.69;;;22.74;68.14
12799;BME280;19250;42.646;26.980;2023-07-31T03:43:15;98338.44;;;22.86;67.57
12799;BME280;19250;42.646;26.980;2023-07-31T03:45:43;98338.91;;;22.39;69.27
12799;BME280;19250;42.646;26.980;2023-07-31T03:48:10;98339.78;;;22.23;71.24
12799;BME280;19250;42.646;26.980;2023-07-31T03:50:37;98332.88;;;22.75;70.09
12799;BME280;19250;42.646;26.980;2023-07-31T03:53:04;98336.53;;;23.08;69.46
12799;BME280;19250;42.646;26.980;2023-07-31T03:55:31;98332.13;;;23.28;68.44
12799;BME280;19250;42.646;26.980;2023-07-31T03:57:57;98337.94;;;23.37;68.54
12799;BME280;19250;42.646;26.980;2023-07-31T04:00:25;98333.53;;;23.58;68.27
12799;BME280;19250;42.646;26.980;2023-07-31T04:02:54;98337.72;;;23.70;68.69
12799;BME280;19250;42.646;26.980;2023-07-31T04:05:21;98350.72;;;23.90;67.88
12799;BME280;19250;42.646;26.980;2023-07-31T04:07:48;98347.50;;;23.98;67.75
12799;BME280;19250;42.646;26.980;2023-07-31T04:10:15;98345.59;;;23.99;67.32
12799;BME280;19250;42.646;26.980;2023-07-31T04:12:42;98357.19;;;23.84;68.53
12799;BME280;19250;42.646;26.980;2023-07-31T04:15:09;98362.25;;;24.02;69.40
12799;BME280;19250;42.646;26.980;2023-07-31T04:17:36;98364.97;;;24.39;68.76
12799;BME280;19250;42.646;26.980;2023-07-31T04:20:05;98366.69;;;24.50;67.75
12799;BME280;19250;42.646;26.980;2023-07-31T04:22:32;98367.88;;;24.64;66.91
12799;BME280;19250;42.646;26.980;2023-07-31T04:24:59;98377.53;;;24.40;67.69
12799;BME280;19250;42.646;26.980;2023-07-31T04:27:26;98373.84;;;24.61;66.96
12799;BME280;19250;42.646;26.980;2023-07-31T04:29:53;98367.38;;;24.77;65.93
12799;BME280;19250;42.646;26.980;2023-07-31T04:32:19;98364.97;;;24.81;65.57
12799;BME280;19250;42.646;26.980;2023-07-31T04:34:46;98373.50;;;25.05;66.04
12799;BME280;19250;42.646;26.980;2023-07-31T04:37:15;98373.09;;;25.38;65.10
12799;BME280;19250;42.646;26.980;2023-07-31T04:39:41;98375.63;;;25.50;64.46
12799;BME280;19250;42.646;26.980;2023-07-31T04:42:08;98377.94;;;25.26;65.52
12799;BME280;19250;42.646;26.980;2023-07-31T04:44:35;98377.75;;;25.48;66.33
12799;BME280;19250;42.646;26.980;2023-07-31T04:47:02;98380.28;;;25.79;65.52
12799;BME280;19250;42.646;26.980;2023-07-31T04:49:29;98389.56;;;25.73;63.94
12799;BME280;19250;42.646;26.980;2023-07-31T04:51:56;98384.94;;;25.79;63.03
12799;BME280;19250;42.646;26.980;2023-07-31T04:54:25;98391.25;;;26.05;62.15
12799;BME280;19250;42.646;26.980;2023-07-31T04:56:52;98400.53;;;26.04;59.27
12799;BME280;19250;42.646;26.980;2023-07-31T04:59:18;98397.22;;;25.96;59.49
12799;BME280;19250;42.646;26.980;2023-07-31T05:01:45;98407.31;;;25.76;59.74
12799;BME280;19250;42.646;26.980;2023-07-31T05:04:12;98405.94;;;25.63;58.54
12799;BME280;19250;42.646;26.980;2023-07-31T05:06:39;98398.28;;;25.60;58.10
12799;BME280;19250;42.646;26.980;2023-07-31T05:09:06;98399.94;;;25.76;59.02
12799;BME280;19250;42.646;26.980;2023-07-31T05:11:36;98405.44;;;25.91;58.20
12799;BME280;19250;42.646;26.980;2023-07-31T05:14:02;98405.97;;;25.73;57.41
12799;BME280;19250;42.646;26.980;2023-07-31T05:16:29;98406.50;;;25.70;58.10
12799;BME280;19250;42.646;26.980;2023-07-31T05:18:56;98403.00;;;26.05;58.85
12799;BME280;19250;42.646;26.980;2023-07-31T05:21:23;98414.19;;;26.49;57.32
12799;BME280;19250;42.646;26.980;2023-07-31T05:23:50;98416.09;;;26.59;57.44
12799;BME280;19250;42.646;26.980;2023-07-31T05:26:17;98417.47;;;26.81;54.91
12799;BME280;19250;42.646;26.980;2023-07-31T05:28:45;98413.59;;;26.87;55.38
12799;BME280;19250;42.646;26.980;2023-07-31T05:31:12;98417.94;;;26.98;55.61
12799;BME280;19250;42.646;26.980;2023-07-31T05:33:39;98421.06;;;27.36;53.75
12799;BME280;19250;42.646;26.980;2023-07-31T05:36:06;98415.59;;;27.46;54.16
12799;BME280;19250;42.646;26.980;2023-07-31T05:38:33;98356.81;;;27.18;53.95
12799;BME280;19250;42.646;26.980;2023-07-31T05:41:00;98419.94;;;27.47;54.66
12799;BME280;19250;42.646;26.980;2023-07-31T05:43:27;98415.50;;;27.56;54.05
12799;BME280;19250;42.646;26.980;2023-07-31T05:45:55;98417.94;;;28.01;54.03
12799;BME280;19250;42.646;26.980;2023-07-31T05:48:22;98417.25;;;28.25;53.58
12799;BME280;19250;42.646;26.980;2023-07-31T05:50:49;98416.72;;;28.23;54.16
12799;BME280;19250;42.646;26.980;2023-07-31T05:53:16;98428.03;;;28.45;53.84
12799;BME280;19250;42.646;26.980;2023-07-31T05:55:42;98420.88;;;28.49;53.90
12799;BME280;19250;42.646;26.980;2023-07-31T05:58:09;98429.25;;;28.62;53.32
12799;BME280;19250;42.646;26.980;2023-07-31T06:00:36;98431.88;;;28.78;52.73
12799;BME280;19250;42.646;26.980;2023-07-31T06:03:05;98427.31;;;28.68;53.27
12799;BME280;19250;42.646;26.980;2023-07-31T06:05:33;98433.16;;;28.28;53.47
12799;BME280;19250;42.646;26.980;2023-07-31T06:08:00;98438.56;;;28.33;54.11
12799;BME280;19250;42.646;26.980;2023-07-31T06:10:27;98432.22;;;28.71;54.20
12799;BME280;19250;42.646;26.980;2023-07-31T06:12:54;98443.72;;;29.02;53.46
12799;BME280;19250;42.646;26.980;2023-07-31T06:15:22;98438.53;;;28.38;53.23
12799;BME280;19250;42.646;26.980;2023-07-31T06:17:49;98436.13;;;27.48;57.10
12799;BME280;19250;42.646;26.980;2023-07-31T06:20:17;98434.41;;;28.06;56.22
12799;BME280;19250;42.646;26.980;2023-07-31T06:22:44;98443.72;;;28.73;54.38
12799;BME280;19250;42.646;26.980;2023-07-31T06:25:11;98444.88;;;29.20;51.84
12799;BME280;19250;42.646;26.980;2023-07-31T06:27:38;98449.06;;;29.36;51.67
12799;BME280;19250;42.646;26.980;2023-07-31T06:30:06;98448.09;;;29.69;51.11
12799;BME280;19250;42.646;26.980;2023-07-31T06:32:33;98446.50;;;30.05;50.15
12799;BME280;19250;42.646;26.980;2023-07-31T06:35:00;98449.31;;;30.00;50.03
12799;BME280;19250;42.646;26.980;2023-07-31T06:37:28;98444.53;;;30.43;49.29
12799;BME280;19250;42.646;26.980;2023-07-31T06:39:56;98455.19;;;30.96;47.22
12799;BME280;19250;42.646;26.980;2023-07-31T06:42:26;98458.63;;;31.01;46.85
12799;BME280;19250;42.646;26.980;2023-07-31T06:44:55;98457.84;;;31.14;46.41
12799;BME280;19250;42.646;26.980;2023-07-31T06:47:24;98457.84;;;31.42;46.52
12799;BME280;19250;42.646;26.980;2023-07-31T06:49:54;98457.03;;;31.27;45.95
12799;BME280;19250;42.646;26.980;2023-07-31T06:52:50;98452.44;;;31.23;45.22
12799;BME280;19250;42.646;26.980;2023-07-31T06:55:18;98456.72;;;30.18;47.82
12799;BME280;19250;42.646;26.980;2023-07-31T06:57:45;98463.75;;;30.94;47.50
12799;BME280;19250;42.646;26.980;2023-07-31T07:00:12;98457.63;;;30.33;47.52
12799;BME280;19250;42.646;26.980;2023-07-31T07:02:39;98459.88;;;30.63;47.98
12799;BME280;19250;42.646;26.980;2023-07-31T07:05:07;98470.28;;;31.25;46.71
12799;BME280;19250;42.646;26.980;2023-07-31T07:07:34;98466.75;;;31.25;46.36
12799;BME280;19250;42.646;26.980;2023-07-31T07:10:02;98471.41;;;31.65;45.90
12799;BME280;19250;42.646;26.980;2023-07-31T07:12:30;98472.78;;;31.54;45.44
12799;BME280;19250;42.646;26.980;2023-07-31T07:14:58;98476.00;;;31.70;45.16
12799;BME280;19250;42.646;26.980;2023-07-31T07:17:24;98476.00;;;31.70;45.57
12799;BME280;19250;42.646;26.980;2023-07-31T07:19:51;98475.00;;;31.66;44.88
12799;BME280;19250;42.646;26.980;2023-07-31T07:22:21;98480.56;;;32.38;44.50
12799;BME280;19250;42.646;26.980;2023-07-31T07:24:48;98487.00;;;32.55;43.40
12799;BME280;19250;42.646;26.980;2023-07-31T07:27:16;98479.06;;;32.31;42.97
12799;BME280;19250;42.646;26.980;2023-07-31T07:29:43;98481.41;;;31.89;44.13
12799;BME280;19250;42.646;26.980;2023-07-31T07:32:11;98487.44;;;31.77;44.66
12799;BME280;19250;42.646;26.980;2023-07-31T07:34:38;98491.34;;;31.49;45.47
12799;BME280;19250;42.646;26.980;2023-07-31T07:37:05;98486.69;;;30.57;47.88
12799;BME280;19250;42.646;26.980;2023-07-31T07:39:32;98493.53;;;29.85;49.15
12799;BME280;19250;42.646;26.980;2023-07-31T07:41:59;98501.41;;;29.21;51.21
12799;BME280;19250;42.646;26.980;2023-07-31T07:44:28;98502.72;;;29.52;51.77
12799;BME280;19250;42.646;26.980;2023-07-31T07:46:54;98508.56;;;29.22;52.49
12799;BME280;19250;42.646;26.980;2023-07-31T07:49:21;98516.72;;;29.55;52.29
12799;BME280;19250;42.646;26.980;2023-07-31T07:51:51;98514.66;;;29.42;51.61
12799;BME280;19250;42.646;26.980;2023-07-31T07:54:18;98526.19;;;29.15;52.60
12799;BME280;19250;42.646;26.980;2023-07-31T07:56:46;98520.56;;;29.31;53.78
12799;BME280;19250;42.646;26.980;2023-07-31T07:59:15;98520.31;;;28.70;54.83
12799;BME280;19250;42.646;26.980;2023-07-31T08:01:44;98535.03;;;28.45;56.60
12799;BME280;19250;42.646;26.980;2023-07-31T08:04:11;98545.31;;;28.63;56.78
12799;BME280;19250;42.646;26.980;2023-07-31T08:06:38;98545.66;;;28.90;56.33
12799;BME280;19250;42.646;26.980;2023-07-31T08:09:05;98548.47;;;28.85;56.29
12799;BME280;19250;42.646;26.980;2023-07-31T08:11:32;98556.47;;;29.10;55.84
12799;BME280;19250;42.646;26.980;2023-07-31T08:13:59;98562.31;;;29.04;56.34
12799;BME280;19250;42.646;26.980;2023-07-31T08:16:26;98563.00;;;29.14;57.44
12799;BME280;19250;42.646;26.980;2023-07-31T08:18:54;98566.22;;;28.93;58.42
12799;BME280;19250;42.646;26.980;2023-07-31T08:21:21;98566.19;;;28.64;60.78
12799;BME280;19250;42.646;26.980;2023-07-31T08:23:48;98567.84;;;28.65;60.83
12799;BME280;19250;42.646;26.980;2023-07-31T08:26:15;98567.63;;;28.90;60.92
12799;BME280;19250;42.646;26.980;2023-07-31T08:28:42;98574.81;;;28.86;61.08
12799;BME280;19250;42.646;26.980;2023-07-31T08:31:09;98572.78;;;28.68;61.92
12799;BME280;19250;42.646;26.980;2023-07-31T08:33:37;98564.25;;;28.70;61.33
12799;BME280;19250;42.646;26.980;2023-07-31T08:36:05;98563.84;;;28.86;60.94
12799;BME280;19250;42.646;26.980;2023-07-31T08:38:32;98566.09;;;28.79;61.07
12799;BME280;19250;42.646;26.980;2023-07-31T08:40:59;98566.25;;;28.54;63.29
12799;BME280;19250;42.646;26.980;2023-07-31T08:43:26;98556.00;;;28.26;64.91
12799;BME280;19250;42.646;26.980;2023-07-31T08:45:53;98549.53;;;28.12;66.66
12799;BME280;19250;42.646;26.980;2023-07-31T08:48:21;98554.44;;;28.15;66.37
12799;BME280;19250;42.646;26.980;2023-07-31T08:50:49;98558.84;;;28.16;67.59
12799;BME280;19250;42.646;26.980;2023-07-31T08:53:17;98555.44;;;28.29;67.54
12799;BME280;19250;42.646;26.980;2023-07-31T08:55:44;98559.47;;;28.41;66.29
12799;BME280;19250;42.646;26.980;2023-07-31T08:58:12;98554.38;;;28.25;67.12
12799;BME280;19250;42.646;26.980;2023-07-31T09:00:39;98551.66;;;28.25;67.41
12799;BME280;19250;42.646;26.980;2023-07-31T09:03:08;98541.34;;;28.06;68.07
12799;BME280;19250;42.646;26.980;2023-07-31T09:05:36;98540.56;;;27.86;69.21
12799;BME280;19250;42.646;26.980;2023-07-31T09:08:06;98530.16;;;27.88;70.91
12799;BME280;19250;42.646;26.980;2023-07-31T09:10:37;98533.94;;;27.97;70.20
12799;BME280;19250;42.646;26.980;2023-07-31T09:13:06;98529.94;;;27.79;70.20
12799;BME280;19250;42.646;26.980;2023-07-31T09:15:33;98529.88;;;27.89;70.52
12799;BME280;19250;42.646;26.980;2023-07-31T09:18:02;98528.88;;;27.65;72.32
12799;BME280;19250;42.646;26.980;2023-07-31T09:20:29;98529.19;;;27.64;73.67
12799;BME280;19250;42.646;26.980;2023-07-31T09:22:57;98519.94;;;27.34;76.73
12799;BME280;19250;42.646;26.980;2023-07-31T09:25:31;98516.94;;;27.26;77.61
12799;BME280;19250;42.646;26.980;2023-07-31T09:28:00;98517.78;;;27.26;78.21
12799;BME280;19250;42.646;26.980;2023-07-31T09:30:27;98518.91;;;27.15;79.71
12799;BME280;19250;42.646;26.980;2023-07-31T09:33:00;98516.69;;;27.22;82.60
12799;BME280;19250;42.646;26.980;2023-07-31T09:35:27;98522.22;;;27.02;87.09
12799;BME280;19250;42.646;26.980;2023-07-31T09:37:55;98521.94;;;27.03;90.04
12799;BME280;19250;42.646;26.980;2023-07-31T09:40:26;98518.66;;;27.01;91.62
12799;BME280;19250;42.646;26.980;2023-07-31T09:42:53;98510.47;;;26.96;95.13
12799;BME280;19250;42.646;26.980;2023-07-31T09:45:21;98503.91;;;26.92;96.16
12799;BME280;19250;42.646;26.980;2023-07-31T09:47:49;98506.09;;;26.90;99.75
12799;BME280;19250;42.646;26.980;2023-07-31T09:50:16;98506.88;;;26.76;100.00
12799;BME280;19250;42.646;26.980;2023-07-31T09:52:42;98521.38;;;26.31;100.00
12799;BME280;19250;42.646;26.980;2023-07-31T09:55:09;98526.63;;;25.60;100.00
12799;BME280;19250;42.646;26.980;2023-07-31T09:57:37;98534.28;;;25.58;100.00
12799;BME280;19250;42.646;26.980;2023-07-31T10:00:06;98390.38;;;24.50;100.00
12799;BME280;19250;42.646;26.980;2023-07-31T10:02:36;98515.75;;;25.65;100.00
12799;BME280;19250;42.646;26.980;2023-07-31T10:05:03;98513.09;;;26.01;100.00
12799;BME280;19250;42.646;26.980;2023-07-31T10:07:31;98500.06;;;26.23;100.00
12799;BME280;19250;42.646;26.980;2023-07-31T10:10:00;98489.38;;;26.21;100.00
12799;BME280;19250;42.646;26.980;2023-07-31T10:12:27;98480.88;;;26.08;100.00
12799;BME280;19250;42.646;26.980;2023-07-31T10:14:54;98502.78;;;26.58;100.00
12799;BME280;19250;42.646;26.980;2023-07-31T10:17:21;98503.91;;;26.82;100.00
12799;BME280;19250;42.646;26.980;2023-07-31T10:19:50;98508.00;;;27.00;100.00
12799;BME280;19250;42.646;26.980;2023-07-31T10:22:18;98506.59;;;27.18;100.00
12799;BME280;19250;42.646;26.980;2023-07-31T10:24:46;98505.69;;;27.37;100.00
12799;BME280;19250;42.646;26.980;2023-07-31T10:27:13;98514.81;;;27.08;100.00
12799;BME280;19250;42.646;26.980;2023-07-31T10:29:40;98520.84;;;26.99;100.00
12799;BME280;19250;42.646;26.980;2023-07-31T10:32:07;98516.94;;;27.36;100.00
12799;BME280;19250;42.646;26.980;2023-07-31T10:34:37;98515.41;;;27.74;98.54
12799;BME280;19250;42.646;26.980;2023-07-31T10:37:22;98503.84;;;27.87;95.56
12799;BME280;19250;42.646;26.980;2023-07-31T10:40:00;98510.13;;;27.92;93.61
12799;BME280;19250;42.646;26.980;2023-07-31T10:42:31;98504.88;;;28.06;90.63
12799;BME280;19250;42.646;26.980;2023-07-31T10:45:00;98511.41;;;28.15;88.24
12799;BME280;19250;42.646;26.980;2023-07-31T10:47:27;98515.00;;;28.49;88.33
12799;BME280;19250;42.646;26.980;2023-07-31T10:52:38;98523.69;;;29.48;81.33
12799;BME280;19250;42.646;26.980;2023-07-31T10:55:15;98516.06;;;30.24;76.75
12799;BME280;19250;42.646;26.980;2023-07-31T10:57:44;98517.34;;;30.83;66.08
12799;BME280;19250;42.646;26.980;2023-07-31T11:00:20;98516.66;;;30.91;67.32
12799;BME280;19250;42.646;26.980;2023-07-31T11:03:02;98514.81;;;30.54;66.78
12799;BME280;19250;42.646;26.980;2023-07-31T11:05:44;98503.50;;;30.56;68.31
12799;BME280;19250;42.646;26.980;2023-07-31T11:08:15;98498.06;;;30.83;66.26
12799;BME280;19250;42.646;26.980;2023-07-31T11:10:42;98488.13;;;30.55;67.37
12799;BME280;19250;42.646;26.980;2023-07-31T11:13:09;98500.47;;;30.39;63.67
12799;BME280;19250;42.646;26.980;2023-07-31T11:15:36;98495.31;;;29.95;64.58
12799;BME280;19250;42.646;26.980;2023-07-31T11:18:03;98506.91;;;30.29;61.28
12799;BME280;19250;42.646;26.980;2023-07-31T11:20:31;98507.22;;;30.97;59.74
12799;BME280;19250;42.646;26.980;2023-07-31T11:22:59;98507.16;;;31.43;57.64
12799;BME280;19250;42.646;26.980;2023-07-31T11:25:28;98509.78;;;32.16;53.61
12799;BME280;19250;42.646;26.980;2023-07-31T11:27:55;98499.97;;;32.32;52.46
12799;BME280;19250;42.646;26.980;2023-07-31T11:30:22;98502.75;;;31.83;52.51
12799;BME280;19250;42.646;26.980;2023-07-31T11:32:49;98502.44;;;32.78;50.00
12799;BME280;19250;42.646;26.980;2023-07-31T11:35:17;98499.19;;;32.99;48.57
12799;BME280;19250;42.646;26.980;2023-07-31T11:37:44;98501.50;;;32.16;48.81
12799;BME280;19250;42.646;26.980;2023-07-31T11:40:11;98502.13;;;32.13;50.17
12799;BME280;19250;42.646;26.980;2023-07-31T11:42:39;98507.44;;;32.68;49.79
12799;BME280;19250;42.646;26.980;2023-07-31T11:45:07;98502.63;;;33.74;48.38
12799;BME280;19250;42.646;26.980;2023-07-31T11:47:35;98501.75;;;34.73;45.05
12799;BME280;19250;42.646;26.980;2023-07-31T11:50:02;98508.69;;;33.85;43.57
12799;BME280;19250;42.646;26.980;2023-07-31T11:52:29;98506.19;;;33.66;44.04
12799;BME280;19250;42.646;26.980;2023-07-31T11:54:57;98504.50;;;33.17;45.15
12799;BME280;19250;42.646;26.980;2023-07-31T11:57:24;98501.50;;;33.36;43.50
12799;BME280;19250;42.646;26.980;2023-07-31T11:59:53;98505.25;;;33.49;44.45
12799;BME280;19250;42.646;26.980;2023-07-31T12:02:20;98490.59;;;33.39;45.76
12799;BME280;19250;42.646;26.980;2023-07-31T12:04:47;98495.16;;;33.83;43.76
12799;BME280;19250;42.646;26.980;2023-07-31T12:07:14;98488.28;;;35.47;39.93
12799;BME280;19250;42.646;26.980;2023-07-31T12:09:50;98481.59;;;35.19;40.41
12799;BME280;19250;42.646;26.980;2023-07-31T12:12:19;98487.94;;;36.49;37.36
12799;BME280;19250;42.646;26.980;2023-07-31T12:14:46;98488.25;;;37.82;35.41
12799;BME280;19250;42.646;26.980;2023-07-31T12:17:14;98491.78;;;38.31;34.17
12799;BME280;19250;42.646;26.980;2023-07-31T12:19:41;98493.72;;;37.91;34.73
12799;BME280;19250;42.646;26.980;2023-07-31T12:22:11;98479.53;;;38.08;34.17
12799;BME280;19250;42.646;26.980;2023-07-31T12:24:38;98478.81;;;39.22;32.66
12799;BME280;19250;42.646;26.980;2023-07-31T12:27:08;98468.53;;;39.57;31.25
12799;BME280;19250;42.646;26.980;2023-07-31T12:29:35;98468.72;;;39.02;32.21
12799;BME280;19250;42.646;26.980;2023-07-31T12:32:02;98460.72;;;38.73;32.86
12799;BME280;19250;42.646;26.980;2023-07-31T12:34:30;98452.63;;;39.11;32.13
12799;BME280;19250;42.646;26.980;2023-07-31T12:36:57;98450.47;;;39.36;31.12
12799;BME280;19250;42.646;26.980;2023-07-31T12:39:25;98447.84;;;39.27;30.53
12799;BME280;19250;42.646;26.980;2023-07-31T12:41:52;98447.31;;;39.68;30.66
12799;BME280;19250;42.646;26.980;2023-07-31T12:44:19;98451.47;;;40.67;29.68
12799;BME280;19250;42.646;26.980;2023-07-31T12:46:46;98449.38;;;41.51;28.38
12799;BME280;19250;42.646;26.980;2023-07-31T12:49:13;98436.22;;;40.26;29.80
12799;BME280;19250;42.646;26.980;2023-07-31T12:51:41;98435.38;;;39.87;30.39
12799;BME280;19250;42.646;26.980;2023-07-31T12:54:08;98438.03;;;40.38;29.36
12799;BME280;19250;42.646;26.980;2023-07-31T12:56:35;98436.16;;;40.84;28.96